Time;durP1;ratioP1;P1;durP2;ratioP2;P2;SDS_P1;SDS_P2;PMS_P1;PMS_P2;Temp;Humidity;BMP_temperature;BMP_pressure;BME280_temperature;BME280_humidity;BME280_pressure;Samples;Min_cycle;Max_cycle;Signal;HPM_P1;HPM_P2
2021/07/04 00:00:28;;;;;;;12.30;10.07;;;18.00;99.90;;;;;;5115308;28;20592;-68
2021/07/04 00:02:56;;;;;;;11.40;10.20;;;18.00;99.90;;;;;;5115280;28;20924;-69
2021/07/04 00:05:26;;;;;;;11.23;10.13;;;18.00;99.90;;;;;;5115295;28;20654;-69
2021/07/04 00:07:52;;;;;;;11.60;9.33;;;18.00;99.90;;;;;;5115138;28;20605;-69
2021/07/04 00:10:27;;;;;;;10.40;9.27;;;18.00;99.90;;;;;;5115081;28;20623;-69
2021/07/04 00:12:54;;;;;;;12.70;10.50;;;18.00;99.90;;;;;;5114715;28;20644;-69
2021/07/04 00:15:23;;;;;;;11.57;10.47;;;17.90;99.90;;;;;;5114993;28;20596;-69
2021/07/04 00:17:49;;;;;;;10.50;9.50;;;17.90;99.90;;;;;;5114804;28;20683;-69
2021/07/04 00:20:21;;;;;;;12.27;11.07;;;17.90;99.90;;;;;;5115215;28;21015;-69
2021/07/04 00:22:48;;;;;;;10.53;9.50;;;18.00;99.90;;;;;;5114595;28;20557;-69
2021/07/04 00:25:16;;;;;;;11.57;10.40;;;17.90;99.90;;;;;;5114850;28;20628;-69
2021/07/04 00:27:43;;;;;;;17.30;11.60;;;17.90;99.90;;;;;;5113813;28;20647;-69
2021/07/04 00:30:12;;;;;;;13.33;11.47;;;17.90;99.90;;;;;;5114275;28;20644;-69
2021/07/04 00:32:38;;;;;;;12.60;11.40;;;17.90;99.90;;;;;;5114193;28;20717;-69
2021/07/04 00:35:07;;;;;;;13.67;12.20;;;17.90;99.90;;;;;;5114680;28;20612;-69
2021/07/04 00:37:34;;;;;;;12.33;11.13;;;17.80;99.90;;;;;;5114320;28;20947;-69
2021/07/04 00:40:01;;;;;;;13.40;11.87;;;17.80;99.90;;;;;;5114229;28;20619;-69
2021/07/04 00:42:27;;;;;;;15.13;11.97;;;17.80;99.90;;;;;;5114370;28;20597;-69
2021/07/04 00:44:53;;;;;;;13.27;11.10;;;17.70;99.90;;;;;;5114052;28;20617;-69
2021/07/04 00:47:20;;;;;;;13.30;11.43;;;17.80;99.90;;;;;;5114322;28;20605;-70
2021/07/04 00:49:47;;;;;;;12.77;11.47;;;17.70;99.90;;;;;;5114363;28;20699;-69
2021/07/04 00:52:14;;;;;;;15.37;12.33;;;17.70;99.90;;;;;;5113624;28;20656;-69
2021/07/04 00:54:41;;;;;;;12.53;11.33;;;17.70;99.90;;;;;;5114123;28;20580;-69
2021/07/04 00:57:08;;;;;;;14.90;12.67;;;17.70;99.90;;;;;;5114146;28;20593;-69
2021/07/04 00:59:34;;;;;;;15.50;12.07;;;17.70;99.90;;;;;;5113206;28;21034;-69
2021/07/04 01:02:01;;;;;;;14.00;12.60;;;17.70;99.90;;;;;;5096603;28;20943;-71
2021/07/04 01:04:27;;;;;;;14.47;11.93;;;17.70;99.90;;;;;;5114318;28;20625;-71
2021/07/04 01:06:54;;;;;;;14.40;12.67;;;17.70;99.90;;;;;;5114225;28;20602;-71
2021/07/04 01:09:21;;;;;;;16.80;13.10;;;17.60;99.90;;;;;;5114525;28;20665;-71
2021/07/04 01:11:48;;;;;;;15.20;13.43;;;17.60;99.90;;;;;;5113755;28;20612;-71
2021/07/04 01:14:15;;;;;;;15.60;14.00;;;17.60;99.90;;;;;;5114428;28;20612;-71
2021/07/04 01:16:43;;;;;;;20.17;14.70;;;17.60;99.90;;;;;;5095831;28;20616;-71
2021/07/04 01:19:13;;;;;;;16.07;14.17;;;17.60;99.90;;;;;;5114135;28;20596;-71
2021/07/04 01:21:42;;;;;;;15.37;13.77;;;17.60;99.90;;;;;;5114325;28;20953;-71
2021/07/04 01:24:09;;;;;;;20.67;15.37;;;17.60;99.90;;;;;;5114245;28;20607;-71
2021/07/04 01:26:36;;;;;;;16.20;13.57;;;17.60;99.90;;;;;;5095674;28;20632;-71
2021/07/04 01:29:03;;;;;;;21.17;15.40;;;17.50;99.90;;;;;;5096120;28;21025;-71
2021/07/04 01:31:30;;;;;;;19.33;14.67;;;17.60;99.90;;;;;;5113842;28;20647;-71
2021/07/04 01:33:57;;;;;;;22.20;14.33;;;17.60;99.90;;;;;;5114402;28;20654;-71
2021/07/04 01:36:23;;;;;;;17.90;14.90;;;17.60;99.90;;;;;;5118239;28;20670;-71
2021/07/04 01:38:50;;;;;;;19.00;15.63;;;17.60;99.90;;;;;;5117973;28;20626;-71
2021/07/04 01:41:17;;;;;;;17.10;13.83;;;17.70;99.90;;;;;;5118228;28;20624;-71
2021/07/04 01:43:43;;;;;;;19.17;15.97;;;17.70;99.90;;;;;;5117965;28;20600;-71
2021/07/04 01:46:09;;;;;;;19.60;15.47;;;17.70;99.90;;;;;;5118047;28;20593;-71
2021/07/04 01:48:36;;;;;;;18.60;15.23;;;17.70;99.90;;;;;;5117819;28;20593;-71
2021/07/04 01:51:02;;;;;;;18.20;15.07;;;17.70;99.90;;;;;;5099657;28;20616;-71
2021/07/04 01:53:30;;;;;;;16.10;14.43;;;17.70;99.90;;;;;;5117639;28;20616;-71
2021/07/04 01:55:56;;;;;;;17.23;15.43;;;17.70;99.90;;;;;;5117714;28;20588;-71
2021/07/04 01:58:23;;;;;;;19.20;15.07;;;17.70;99.90;;;;;;5117077;28;20611;-71
2021/07/04 02:00:49;;;;;;;17.63;15.83;;;17.70;99.90;;;;;;5117655;28;21134;-71
2021/07/04 02:03:16;;;;;;;19.20;14.80;;;17.70;99.90;;;;;;5117505;28;20977;-71
2021/07/04 02:05:42;;;;;;;21.23;16.60;;;17.70;99.90;;;;;;5117907;28;21159;-71
2021/07/04 02:08:09;;;;;;;24.10;16.93;;;17.60;99.90;;;;;;5117364;28;20599;-71
2021/07/04 02:10:39;;;;;;;20.37;16.47;;;17.70;99.90;;;;;;5117557;28;20612;-71
2021/07/04 02:13:08;;;;;;;23.60;17.87;;;17.70;99.90;;;;;;5117595;28;20688;-71
2021/07/04 02:15:36;;;;;;;18.23;15.40;;;17.60;99.90;;;;;;5098965;28;20614;-71
2021/07/04 02:18:06;;;;;;;20.40;16.37;;;17.60;99.90;;;;;;5117104;28;20943;-71
2021/07/04 02:20:44;;;;;;;20.77;15.87;;;17.60;99.90;;;;;;5117298;28;20594;-71
2021/07/04 02:23:17;;;;;;;21.53;16.60;;;17.60;99.90;;;;;;5117451;28;20569;-71
2021/07/04 02:25:45;;;;;;;25.57;18.20;;;17.70;99.90;;;;;;5117027;28;20620;-71
2021/07/04 02:28:13;;;;;;;19.60;16.10;;;17.70;99.90;;;;;;5117455;28;20592;-71
2021/07/04 02:30:40;;;;;;;21.70;16.53;;;17.70;99.90;;;;;;5117224;28;20588;-71
2021/07/04 02:33:08;;;;;;;21.03;16.80;;;17.70;99.90;;;;;;5116909;28;20651;-71
2021/07/04 02:35:37;;;;;;;21.13;16.60;;;17.70;99.90;;;;;;5117199;28;20612;-71
2021/07/04 02:38:05;;;;;;;25.23;17.07;;;17.70;99.90;;;;;;5098703;28;20614;-71
2021/07/04 02:40:31;;;;;;;22.20;17.63;;;17.70;99.90;;;;;;5116944;28;21199;-71
2021/07/04 02:43:00;;;;;;;21.83;17.70;;;17.60;99.90;;;;;;5116906;28;20946;-71
2021/07/04 02:45:26;;;;;;;25.80;17.60;;;17.70;99.90;;;;;;5116805;28;20943;-71
2021/07/04 02:47:53;;;;;;;23.27;17.00;;;17.70;99.90;;;;;;5116945;28;20612;-71
2021/07/04 02:50:23;;;;;;;20.30;17.60;;;17.70;99.90;;;;;;5116840;28;20745;-71
2021/07/04 02:52:51;;;;;;;20.43;17.77;;;17.70;99.90;;;;;;5115911;28;20762;-71
2021/07/04 02:55:18;;;;;;;23.10;17.17;;;17.70;99.90;;;;;;5116713;28;20956;-71
2021/07/04 02:57:46;;;;;;;25.77;17.80;;;17.70;99.90;;;;;;5116780;28;20978;-70
2021/07/04 03:00:15;;;;;;;19.17;16.90;;;17.70;99.90;;;;;;5116517;28;20604;-70
2021/07/04 03:02:41;;;;;;;23.07;16.43;;;17.70;99.90;;;;;;5115528;28;20639;-70
2021/07/04 03:05:09;;;;;;;22.67;17.23;;;17.70;99.90;;;;;;5101412;28;20648;-70
2021/07/04 03:07:37;;;;;;;21.07;18.07;;;17.70;99.90;;;;;;5115995;28;20639;-70
2021/07/04 03:10:12;;;;;;;22.83;18.00;;;17.70;99.90;;;;;;5115230;28;20952;-70
2021/07/04 03:12:38;;;;;;;26.10;17.90;;;17.70;99.90;;;;;;5115877;28;20608;-70
2021/07/04 03:15:07;;;;;;;27.60;18.60;;;17.70;99.90;;;;;;5115742;28;20624;-70
2021/07/04 03:17:34;;;;;;;20.23;17.37;;;17.70;99.90;;;;;;5115818;28;20626;-70
2021/07/04 03:20:00;;;;;;;21.33;18.30;;;17.70;99.90;;;;;;5116165;28;20596;-70
2021/07/04 03:22:27;;;;;;;19.60;16.57;;;17.70;99.90;;;;;;5098204;28;20667;-70
2021/07/04 03:24:53;;;;;;;19.40;16.90;;;17.70;99.90;;;;;;5116141;28;20600;-70
2021/07/04 03:27:19;;;;;;;25.07;18.47;;;17.70;99.90;;;;;;5116051;28;20599;-70
2021/07/04 03:29:46;;;;;;;20.83;18.10;;;17.70;99.90;;;;;;5115588;28;20616;-70
2021/07/04 03:32:12;;;;;;;22.50;18.03;;;17.70;99.90;;;;;;5116042;28;20996;-70
2021/07/04 03:34:38;;;;;;;29.33;18.13;;;17.70;99.90;;;;;;5115967;28;20658;-70
2021/07/04 03:37:06;;;;;;;20.33;16.90;;;17.70;99.90;;;;;;5115851;28;20628;-70
2021/07/04 03:39:33;;;;;;;20.33;17.33;;;17.70;99.90;;;;;;5116212;28;20612;-70
2021/07/04 03:41:59;;;;;;;21.30;17.90;;;17.70;99.90;;;;;;5115287;28;20640;-70
2021/07/04 03:44:25;;;;;;;20.30;16.10;;;17.70;99.90;;;;;;5097942;28;20596;-70
2021/07/04 03:46:51;;;;;;;20.97;17.00;;;17.70;99.90;;;;;;5115892;28;21161;-70
2021/07/04 03:49:18;;;;;;;26.27;19.17;;;17.80;99.90;;;;;;5115378;28;20627;-70
2021/07/04 03:51:44;;;;;;;22.50;16.73;;;17.80;99.90;;;;;;5115508;28;20591;-70
2021/07/04 03:54:10;;;;;;;18.87;16.77;;;17.80;99.90;;;;;;5115861;28;20651;-70
2021/07/04 03:56:37;;;;;;;22.43;16.37;;;17.90;99.90;;;;;;5115126;28;20597;-70
2021/07/04 03:59:03;;;;;;;19.90;16.33;;;17.90;99.90;;;;;;5115415;28;20642;-70
2021/07/04 04:01:30;;;;;;;23.23;16.53;;;17.90;99.90;;;;;;5115543;28;20924;-70
2021/07/04 04:03:56;;;;;;;16.80;15.00;;;17.90;99.90;;;;;;5115415;28;20693;-71
2021/07/04 04:06:22;;;;;;;21.07;16.13;;;17.90;99.90;;;;;;5115279;28;20608;-70
2021/07/04 04:08:49;;;;;;;21.97;15.20;;;18.00;99.90;;;;;;5114835;28;20640;-70
2021/07/04 04:11:15;;;;;;;16.60;14.37;;;18.00;99.90;;;;;;5115273;28;20595;-70
2021/07/04 04:13:41;;;;;;;18.60;16.63;;;18.00;99.90;;;;;;5114530;28;21002;-70
2021/07/04 04:16:08;;;;;;;19.60;14.13;;;18.10;99.90;;;;;;5115016;28;20631;-70
2021/07/04 04:18:37;;;;;;;19.23;15.50;;;18.10;99.90;;;;;;5114991;28;20595;-70
2021/07/04 04:21:05;;;;;;;17.40;15.30;;;18.10;99.90;;;;;;5115016;28;20967;-70
2021/07/04 04:23:32;;;;;;;17.23;15.30;;;18.20;99.90;;;;;;5115004;28;20596;-70
2021/07/04 04:26:00;;;;;;;17.40;13.37;;;18.20;99.90;;;;;;5114356;28;21137;-70
2021/07/04 04:28:26;;;;;;;18.40;15.70;;;18.30;99.90;;;;;;5115009;28;20589;-70
2021/07/04 04:30:53;;;;;;;16.30;14.60;;;18.20;99.90;;;;;;5114577;28;20956;-70
2021/07/04 04:33:20;;;;;;;19.93;14.73;;;18.30;99.90;;;;;;5114821;28;20603;-70
2021/07/04 04:35:46;;;;;;;26.77;16.50;;;18.20;99.90;;;;;;5114780;28;20584;-70
2021/07/04 04:38:13;;;;;;;22.37;16.20;;;18.20;99.90;;;;;;5114606;28;20695;-70
2021/07/04 04:40:39;;;;;;;17.17;15.07;;;18.20;99.90;;;;;;5114700;28;20988;-70
2021/07/04 04:43:05;;;;;;;17.30;15.30;;;18.20;99.90;;;;;;5114704;28;20623;-70
2021/07/04 04:45:32;;;;;;;15.87;14.37;;;18.20;99.90;;;;;;5114675;28;20614;-70
2021/07/04 04:47:58;;;;;;;25.17;15.13;;;18.20;99.90;;;;;;5114667;28;20595;-70
2021/07/04 04:50:24;;;;;;;18.77;14.50;;;18.30;99.90;;;;;;5114384;28;20608;-70
2021/07/04 04:52:51;;;;;;;18.33;13.20;;;18.30;99.90;;;;;;5095967;28;21142;-70
2021/07/04 04:55:18;;;;;;;17.30;14.53;;;18.30;99.90;;;;;;5114321;28;21186;-70
2021/07/04 04:57:44;;;;;;;16.50;14.07;;;18.30;99.90;;;;;;5114654;28;20608;-70
2021/07/04 05:00:12;;;;;;;14.30;12.53;;;18.50;99.90;;;;;;5095831;28;20612;-70
2021/07/04 05:02:39;;;;;;;16.10;14.30;;;18.50;99.90;;;;;;5114368;28;20616;-70
2021/07/04 05:05:07;;;;;;;18.33;14.27;;;18.50;99.90;;;;;;5114262;28;20588;-70
2021/07/04 05:07:33;;;;;;;16.80;14.90;;;18.50;99.90;;;;;;5095635;28;20952;-70
2021/07/04 05:10:00;;;;;;;15.10;13.60;;;18.60;99.90;;;;;;5113167;28;20608;-70
2021/07/04 05:12:26;;;;;;;19.03;13.03;;;18.60;99.90;;;;;;5114229;28;20604;-70
2021/07/04 05:14:54;;;;;;;17.90;13.77;;;18.60;99.90;;;;;;5113355;28;21177;-70
2021/07/04 05:17:21;;;;;;;15.70;13.27;;;18.70;99.90;;;;;;5114044;28;20990;-70
2021/07/04 05:19:48;;;;;;;14.50;13.00;;;18.70;99.90;;;;;;5095709;28;20631;-70
2021/07/04 05:22:14;;;;;;;13.70;12.30;;;18.80;99.90;;;;;;5114166;28;20939;-70
2021/07/04 05:24:41;;;;;;;19.93;12.73;;;18.90;99.90;;;;;;5113892;28;21150;-71
2021/07/04 05:27:07;;;;;;;16.10;12.50;;;19.00;99.90;;;;;;5113948;28;20602;-70
2021/07/04 05:29:33;;;;;;;15.77;12.10;;;19.00;99.90;;;;;;5113910;28;21061;-70
2021/07/04 05:32:00;;;;;;;15.00;13.47;;;18.90;99.90;;;;;;5095926;28;20651;-70
2021/07/04 05:34:27;;;;;;;15.47;12.00;;;19.00;99.90;;;;;;5113032;28;21032;-70
2021/07/04 05:36:54;;;;;;;17.00;12.20;;;19.20;99.90;;;;;;5113969;28;20951;-70
2021/07/04 05:39:20;;;;;;;14.13;11.97;;;19.10;99.90;;;;;;5096374;28;20665;-70
2021/07/04 05:41:47;;;;;;;13.57;12.27;;;19.20;99.90;;;;;;5113950;28;20612;-70
2021/07/04 05:44:13;;;;;;;12.27;11.00;;;19.20;99.90;;;;;;5113861;28;20596;-70
2021/07/04 05:46:39;;;;;;;13.60;12.13;;;19.30;99.90;;;;;;5113848;28;20596;-70
2021/07/04 05:49:06;;;;;;;12.23;11.03;;;19.30;99.90;;;;;;5113927;28;20592;-70
2021/07/04 05:51:32;;;;;;;12.83;11.30;;;19.40;99.90;;;;;;5113032;28;21154;-70
2021/07/04 05:53:59;;;;;;;12.87;11.67;;;19.60;99.90;;;;;;5095659;28;20640;-70
2021/07/04 05:56:25;;;;;;;11.00;10.03;;;19.50;99.90;;;;;;5113632;28;20598;-70
2021/07/04 05:58:51;;;;;;;12.77;11.57;;;19.60;99.90;;;;;;5113568;28;20593;-70
2021/07/04 06:01:18;;;;;;;10.90;9.90;;;19.70;99.90;;;;;;5113645;28;20592;-70
2021/07/04 06:03:44;;;;;;;10.87;9.90;;;19.80;99.90;;;;;;5095575;28;20604;-70
2021/07/04 06:06:11;;;;;;;11.97;10.87;;;19.90;99.90;;;;;;5113475;28;21143;-70
2021/07/04 06:08:37;;;;;;;12.30;11.10;;;19.90;99.90;;;;;;5095026;28;20631;-70
2021/07/04 06:11:03;;;;;;;12.03;10.20;;;19.80;99.90;;;;;;5113489;28;20611;-70
2021/07/04 06:13:30;;;;;;;12.07;10.80;;;19.60;99.90;;;;;;5113537;28;20623;-70
2021/07/04 06:15:57;;;;;;;11.90;10.67;;;19.70;99.90;;;;;;5113812;28;20584;-70
2021/07/04 06:18:24;;;;;;;14.03;10.40;;;19.70;99.90;;;;;;5113623;28;20597;-70
2021/07/04 06:20:51;;;;;;;11.03;9.93;;;19.70;99.90;;;;;;5115276;28;20952;-70
2021/07/04 06:23:18;;;;;;;13.73;10.50;;;19.70;99.90;;;;;;5116927;28;20973;-70
2021/07/04 06:25:44;;;;;;;12.10;10.90;;;19.70;99.90;;;;;;5117249;28;20592;-70
2021/07/04 06:28:10;;;;;;;10.60;9.60;;;19.90;99.90;;;;;;5117182;28;20596;-70
2021/07/04 06:30:37;;;;;;;15.13;9.40;;;20.10;99.90;;;;;;5116966;28;21034;-70
2021/07/04 06:33:03;;;;;;;11.27;10.23;;;20.10;99.90;;;;;;5116809;28;20997;-70
2021/07/04 06:35:35;;;;;;;10.33;9.20;;;20.10;99.90;;;;;;5117287;28;20620;-70
2021/07/04 06:38:01;;;;;;;12.13;9.63;;;20.20;99.90;;;;;;5117138;28;20686;-70
2021/07/04 06:40:27;;;;;;;9.70;8.70;;;20.20;99.90;;;;;;5098881;28;20628;-70
2021/07/04 06:42:54;;;;;;;11.90;8.33;;;20.30;99.90;;;;;;5117137;28;20584;-70
2021/07/04 06:45:20;;;;;;;10.30;9.23;;;20.50;99.90;;;;;;5116935;28;20998;-70
2021/07/04 06:47:48;;;;;;;8.70;8.00;;;20.50;99.90;;;;;;5116896;28;20592;-70
2021/07/04 06:50:17;;;;;;;9.30;8.40;;;20.50;99.90;;;;;;5116807;28;20616;-70
2021/07/04 06:52:45;;;;;;;9.57;8.77;;;20.60;99.90;;;;;;5116735;28;20750;-71
2021/07/04 06:55:12;;;;;;;9.40;8.60;;;20.90;99.90;;;;;;5117107;28;20731;-70
2021/07/04 06:57:39;;;;;;;10.50;8.37;;;21.00;99.90;;;;;;5116471;28;20592;-70
2021/07/04 07:00:12;;;;;;;8.40;7.70;;;20.90;99.90;;;;;;5116586;28;20592;-70
2021/07/04 07:02:39;;;;;;;12.77;7.93;;;20.90;99.90;;;;;;5116437;28;20597;-70
2021/07/04 07:05:08;;;;;;;8.83;8.10;;;21.00;99.90;;;;;;5116697;28;20711;-70
2021/07/04 07:07:35;;;;;;;13.10;9.00;;;20.80;99.90;;;;;;5115828;28;20622;-71
2021/07/04 07:10:01;;;;;;;9.63;8.73;;;20.80;99.90;;;;;;5116371;28;20584;-69
2021/07/04 07:12:27;;;;;;;10.17;9.27;;;20.90;99.90;;;;;;5116354;28;20600;-69
2021/07/04 07:14:54;;;;;;;9.60;8.70;;;20.80;99.90;;;;;;5115505;28;20656;-69
2021/07/04 07:17:20;;;;;;;9.07;8.17;;;20.70;99.90;;;;;;5098759;28;20612;-70
2021/07/04 07:19:46;;;;;;;8.97;8.07;;;20.90;99.90;;;;;;5115919;28;20597;-70
2021/07/04 07:22:12;;;;;;;11.10;8.83;;;21.10;99.90;;;;;;5116287;28;20601;-70
2021/07/04 07:24:39;;;;;;;11.70;8.50;;;21.10;99.90;;;;;;5097492;28;20989;-70
2021/07/04 07:27:05;;;;;;;9.77;8.20;;;21.20;99.90;;;;;;5116137;28;20592;-70
2021/07/04 07:29:31;;;;;;;7.67;7.00;;;21.30;99.90;;;;;;5115985;28;20604;-70
2021/07/04 07:31:58;;;;;;;7.80;7.03;;;21.30;99.90;;;;;;5114720;28;20628;-70
2021/07/04 07:34:25;;;;;;;8.57;7.20;;;21.40;99.90;;;;;;5115439;28;20670;-70
2021/07/04 07:36:52;;;;;;;7.83;7.20;;;21.30;99.90;;;;;;5115016;28;20608;-70
2021/07/04 07:39:19;;;;;;;8.07;7.23;;;21.40;99.90;;;;;;5115263;28;20616;-70
2021/07/04 07:41:45;;;;;;;7.43;6.73;;;21.60;99.90;;;;;;5115040;28;21292;-70
2021/07/04 07:44:14;;;;;;;7.77;6.43;;;21.80;99.90;;;;;;5115553;28;21146;-70
2021/07/04 07:46:41;;;;;;;7.43;6.73;;;21.60;99.90;;;;;;5115475;28;20589;-70
2021/07/04 07:49:08;;;;;;;7.10;6.20;;;21.90;99.90;;;;;;5115327;28;20695;-70
2021/07/04 07:51:35;;;;;;;6.03;5.63;;;22.00;99.90;;;;;;5115373;28;20597;-70
2021/07/04 07:54:03;;;;;;;6.83;6.33;;;22.00;99.90;;;;;;5115746;28;21190;-70
2021/07/04 07:56:29;;;;;;;7.43;6.83;;;22.00;99.90;;;;;;5115215;28;20604;-69
2021/07/04 07:58:56;;;;;;;5.53;5.13;;;22.10;99.90;;;;;;5115859;28;20619;-70
2021/07/04 08:01:22;;;;;;;7.37;5.53;;;22.00;99.90;;;;;;5115283;28;20605;-70
2021/07/04 08:03:49;;;;;;;6.87;6.17;;;22.20;99.90;;;;;;5115130;28;20624;-70
2021/07/04 08:06:15;;;;;;;6.40;5.80;;;22.10;99.90;;;;;;5115267;28;20597;-70
2021/07/04 08:08:41;;;;;;;5.53;5.03;;;22.40;99.90;;;;;;5114968;28;20600;-70
2021/07/04 08:11:08;;;;;;;6.90;6.17;;;22.40;99.90;;;;;;5115413;28;20608;-70
2021/07/04 08:13:34;;;;;;;7.40;6.80;;;22.30;99.90;;;;;;5114383;28;21023;-70
2021/07/04 08:16:01;;;;;;;7.03;6.23;;;22.40;99.90;;;;;;5114935;28;20589;-70
2021/07/04 08:18:27;;;;;;;6.63;6.13;;;22.80;99.90;;;;;;5114848;28;20620;-70
2021/07/04 08:20:54;;;;;;;6.80;6.20;;;22.60;99.90;;;;;;5114872;28;20613;-70
2021/07/04 08:23:21;;;;;;;6.80;6.30;;;22.50;99.90;;;;;;5114760;28;20958;-70
2021/07/04 08:25:47;;;;;;;7.20;6.60;;;22.40;99.90;;;;;;5114933;28;21159;-70
2021/07/04 08:28:16;;;;;;;7.63;7.03;;;22.40;99.90;;;;;;5114358;28;20620;-70
2021/07/04 08:30:46;;;;;;;7.10;6.50;;;22.50;99.90;;;;;;5114563;28;20962;-70
2021/07/04 08:33:13;;;;;;;7.20;6.50;;;22.60;99.90;;;;;;5097099;28;20601;-70
2021/07/04 08:35:40;;;;;;;6.90;6.40;;;22.70;99.90;;;;;;5113732;28;20664;-70
2021/07/04 08:38:06;;;;;;;7.10;6.50;;;22.90;99.90;;;;;;5096457;28;20701;-70
2021/07/04 08:40:33;;;;;;;6.60;6.10;;;23.20;99.90;;;;;;5114338;28;20605;-70
2021/07/04 08:42:59;;;;;;;5.23;4.83;;;23.40;93.70;;;;;;5114173;28;20595;-70
2021/07/04 08:45:26;;;;;;;4.90;4.60;;;23.10;97.10;;;;;;5114081;28;20632;-70
2021/07/04 08:47:53;;;;;;;5.20;4.80;;;23.10;34.30;;;;;;5095664;28;20612;-70
2021/07/04 08:50:20;;;;;;;6.17;5.67;;;23.10;13.30;;;;;;5114231;28;20616;-70
2021/07/04 08:52:46;;;;;;;5.63;5.03;;;23.50;52.80;;;;;;5113988;28;20592;-70
2021/07/04 08:55:13;;;;;;;5.70;5.30;;;23.70;24.90;;;;;;5114470;28;20642;-70
2021/07/04 08:57:39;;;;;;;5.70;5.30;;;24.00;7.10;;;;;;5114195;28;20619;-70
2021/07/04 09:00:08;;;;;;;5.90;5.47;;;23.80;31.40;;;;;;5095701;28;20634;-70
2021/07/04 09:02:39;;;;;;;7.23;5.20;;;23.50;1.00;;;;;;5114075;28;20604;-68
2021/07/04 09:05:10;;;;;;;6.20;5.63;;;23.80;1.00;;;;;;5113883;28;20667;-68
2021/07/04 09:07:38;;;;;;;7.40;6.80;;;23.90;1.00;;;;;;5113929;28;20572;-68
2021/07/04 09:10:06;;;;;;;6.33;5.83;;;23.60;26.80;;;;;;5112912;28;20626;-68
2021/07/04 09:12:40;;;;;;;6.60;5.93;;;23.70;18.00;;;;;;5095712;28;20654;-70
2021/07/04 09:15:17;;;;;;;6.30;5.80;;;23.60;24.80;;;;;;5113544;28;21002;-69
2021/07/04 09:17:47;;;;;;;5.93;5.53;;;23.70;10.20;;;;;;5114031;28;20557;-69
2021/07/04 09:20:33;;;;;;;6.47;5.90;;;23.90;1.00;;;;;;5114137;28;20595;-69
2021/07/04 09:23:01;;;;;;;6.77;6.27;;;23.50;1.00;;;;;;5113825;28;20561;-68
2021/07/04 09:25:35;;;;;;;6.70;6.10;;;23.40;1.00;;;;;;5113501;28;20610;-68
2021/07/04 09:28:02;;;;;;;6.30;5.80;;;23.30;8.40;;;;;;5113892;28;20923;-69
2021/07/04 09:30:41;;;;;;;6.60;6.10;;;23.70;1.00;;;;;;5113449;28;20664;-69
2021/07/04 09:33:13;;;;;;;6.37;5.77;;;23.90;1.00;;;;;;5113576;28;20650;-69
2021/07/04 09:35:50;;;;;;;6.53;6.10;;;23.60;2.80;;;;;;5112822;28;20652;-69
2021/07/04 09:38:17;;;;;;;7.20;6.43;;;24.00;1.00;;;;;;5113487;28;20553;-67
2021/07/04 09:40:44;;;;;;;7.20;6.60;;;23.90;10.40;;;;;;5113201;28;20647;-69
2021/07/04 09:43:15;;;;;;;7.73;7.20;;;23.60;17.20;;;;;;5113597;28;20597;-69
2021/07/04 09:45:49;;;;;;;8.10;7.30;;;23.40;94.60;;;;;;5112965;28;20620;-69
2021/07/04 09:48:38;;;;;;;7.30;6.70;;;23.40;92.40;;;;;;5113601;28;20557;-69
2021/07/04 09:51:23;;;;;;;7.20;6.70;;;23.20;99.90;;;;;;5112045;28;20624;-69
2021/07/04 09:53:51;;;;;;;9.70;6.93;;;23.10;99.90;;;;;;5112723;28;20711;-69
2021/07/04 09:56:23;;;;;;;9.30;8.40;;;23.00;99.90;;;;;;5115915;28;20595;-69
2021/07/04 09:58:52;;;;;;;8.83;8.03;;;22.80;99.90;;;;;;5117275;28;20616;-67
2021/07/04 10:01:34;;;;;;;9.20;8.40;;;22.70;99.90;;;;;;5117454;28;21119;-67
2021/07/04 10:04:02;;;;;;;9.10;8.40;;;22.70;99.90;;;;;;5117066;28;20616;-68
2021/07/04 10:06:45;;;;;;;9.40;8.50;;;22.30;99.90;;;;;;5117581;28;20627;-67
2021/07/04 10:09:12;;;;;;;8.20;7.50;;;21.90;99.90;;;;;;5117668;28;20588;-68
2021/07/04 10:11:38;;;;;;;9.60;8.63;;;21.50;99.90;;;;;;5117456;28;20687;-68
2021/07/04 10:14:04;;;;;;;9.70;8.83;;;21.50;99.90;;;;;;5117367;28;20634;-68
2021/07/04 10:16:32;;;;;;;10.27;9.37;;;21.60;99.90;;;;;;5117277;28;20585;-68
2021/07/04 10:19:02;;;;;;;9.37;8.57;;;21.30;99.90;;;;;;5117194;28;21098;-69
2021/07/04 10:21:30;;;;;;;9.47;8.57;;;21.60;99.90;;;;;;5117079;28;20588;-69
2021/07/04 10:23:58;;;;;;;9.30;8.60;;;21.70;99.90;;;;;;5116863;28;21135;-69
2021/07/04 10:26:26;;;;;;;8.93;8.13;;;21.70;99.90;;;;;;5117122;28;21142;-69
2021/07/04 10:28:57;;;;;;;9.17;8.30;;;21.70;99.90;;;;;;5116427;28;20628;-68
2021/07/04 10:31:24;;;;;;;8.60;7.90;;;21.60;99.90;;;;;;5116268;28;20648;-68
2021/07/04 10:34:15;;;;;;;10.50;8.60;;;21.30;99.90;;;;;;5098260;28;20628;-68
2021/07/04 10:37:07;;;;;;;9.03;8.23;;;21.40;99.90;;;;;;5116632;28;20646;-68
2021/07/04 10:39:34;;;;;;;8.13;7.33;;;21.60;99.90;;;;;;5112392;28;20640;-68
2021/07/04 10:42:11;;;;;;;8.63;7.80;;;21.60;99.90;;;;;;5116647;28;20756;-68
2021/07/04 10:44:42;;;;;;;9.10;8.40;;;21.90;99.90;;;;;;5083236;28;21206;-68
2021/07/04 10:47:12;;;;;;;8.87;8.00;;;22.10;99.90;;;;;;5116489;28;20629;-69
2021/07/04 10:49:50;;;;;;;7.80;7.00;;;22.30;99.90;;;;;;5116286;28;20645;-67
2021/07/04 10:52:37;;;;;;;7.60;7.00;;;22.30;99.90;;;;;;5116478;28;20567;-67
2021/07/04 10:55:12;;;;;;;7.33;6.73;;;22.60;99.90;;;;;;5116104;28;20655;-67
2021/07/04 10:57:50;;;;;;;6.60;6.10;;;22.40;99.90;;;;;;5116469;28;20914;-67
2021/07/04 11:00:38;;;;;;;7.23;6.63;;;22.10;99.90;;;;;;5116155;28;20588;-67
2021/07/04 11:03:12;;;;;;;6.37;5.80;;;22.20;99.90;;;;;;5115523;28;20632;-67
2021/07/04 11:05:39;;;;;;;6.07;5.47;;;22.40;99.90;;;;;;5116142;28;20567;-67
2021/07/04 11:08:24;;;;;;;6.37;5.77;;;22.50;99.90;;;;;;5114857;28;20593;-68
2021/07/04 11:10:55;;;;;;;5.20;4.80;;;22.70;99.90;;;;;;5115829;28;20621;-68
2021/07/04 11:13:22;;;;;;;6.27;5.77;;;22.50;99.90;;;;;;5116319;28;20616;-68
2021/07/04 11:16:05;;;;;;;5.63;5.13;;;22.30;99.90;;;;;;5116011;28;20631;-68
2021/07/04 11:19:04;;;;;;;5.93;5.20;;;21.90;99.90;;;;;;5116129;28;20552;-68
2021/07/04 11:21:49;;;;;;;5.53;5.13;;;21.80;99.90;;;;;;5115502;28;20680;-68
2021/07/04 11:24:17;;;;;;;5.97;5.57;;;21.70;99.90;;;;;;5115563;28;20632;-68
2021/07/04 11:27:19;;;;;;;6.13;5.73;;;21.70;99.90;;;;;;5116233;28;20600;-68
2021/07/04 11:30:25;;;;;;;5.93;5.43;;;21.50;99.90;;;;;;5115786;28;20571;-68
2021/07/04 11:33:29;;;;;;;5.90;5.30;;;21.50;99.90;;;;;;5115164;28;20667;-68
2021/07/04 11:36:00;;;;;;;6.17;5.63;;;21.50;99.90;;;;;;5115554;28;20608;-68
2021/07/04 11:38:33;;;;;;;5.60;5.20;;;21.30;99.90;;;;;;5115266;28;20711;-68
2021/07/04 11:41:00;;;;;;;5.50;5.00;;;21.20;99.90;;;;;;5115167;28;20648;-68
2021/07/04 11:43:28;;;;;;;5.40;5.00;;;21.10;99.90;;;;;;5115220;28;20597;-68
2021/07/04 11:45:59;;;;;;;5.73;5.27;;;21.20;99.90;;;;;;5114991;28;21122;-68
2021/07/04 11:48:47;;;;;;;5.90;5.40;;;21.00;99.90;;;;;;5115400;28;20561;-68
2021/07/04 11:51:28;;;;;;;6.10;5.60;;;20.70;99.90;;;;;;5115377;28;20600;-68
2021/07/04 11:54:00;;;;;;;7.73;7.13;;;20.70;99.90;;;;;;5115214;28;20603;-68
2021/07/04 11:56:27;;;;;;;10.83;6.47;;;21.00;99.90;;;;;;5115250;28;20687;-68
2021/07/04 11:59:04;;;;;;;7.40;6.80;;;21.00;99.90;;;;;;5115385;28;21149;-69
2021/07/04 12:01:30;;;;;;;8.23;7.27;;;21.20;99.90;;;;;;5115421;28;20934;-68
2021/07/04 12:03:57;;;;;;;7.23;6.63;;;21.30;99.90;;;;;;5115166;28;21149;-68
2021/07/04 12:06:23;;;;;;;6.10;5.50;;;21.60;99.90;;;;;;5115049;28;20695;-68
2021/07/04 12:09:20;;;;;;;5.83;5.33;;;21.80;99.90;;;;;;5096917;28;20631;-68
2021/07/04 12:11:51;;;;;;;5.67;5.20;;;21.80;99.90;;;;;;5093812;28;20693;-68
2021/07/04 12:14:36;;;;;;;6.50;5.90;;;21.70;99.90;;;;;;5114773;28;20620;-68
2021/07/04 12:17:36;;;;;;;8.30;5.13;;;22.50;99.90;;;;;;5114881;28;20612;-68
2021/07/04 12:20:19;;;;;;;5.40;5.00;;;22.80;99.90;;;;;;5114445;28;21019;-68
2021/07/04 12:22:55;;;;;;;5.10;4.70;;;23.10;99.90;;;;;;5114706;28;20562;-68
2021/07/04 12:25:26;;;;;;;4.67;4.37;;;23.30;99.90;;;;;;5108654;28;20573;-69
2021/07/04 12:27:55;;;;;;;5.30;4.80;;;23.10;99.90;;;;;;5106320;28;20573;-69
2021/07/04 12:30:31;;;;;;;4.87;4.50;;;23.20;99.90;;;;;;5113942;28;20611;-69
2021/07/04 12:33:03;;;;;;;5.00;4.70;;;22.80;99.90;;;;;;5113939;28;21202;-70
2021/07/04 12:35:48;;;;;;;4.80;4.40;;;22.90;99.90;;;;;;5099134;28;20656;-68
2021/07/04 12:38:22;;;;;;;5.13;4.73;;;23.50;99.90;;;;;;5099573;28;20584;-69
2021/07/04 12:40:58;;;;;;;4.37;4.07;;;23.10;99.90;;;;;;5095905;28;21182;-69
2021/07/04 12:43:29;;;;;;;5.23;4.20;;;23.20;99.90;;;;;;5113830;28;20581;-68
2021/07/04 12:45:58;;;;;;;6.20;4.20;;;23.20;99.90;;;;;;5113952;28;20697;-71